Terminal Aerodrome Forecast
Issued by NWS Cleveland, OH

Home | Current Version | Previous Version | Graphics & Text | Print | Product List | Glossary On
Versions: 1 2 3 4 5 6 7 8 9 10 11 12 13 14 15 16 17 18 19 20 21
082
FTUS41 KCLE 301344 AAA
TAFCAK
TAF AMD
KCAK 301344Z 3014/0112 15012KT P6SM -SHRA BKN015 OVC060
      TEMPO 3014/3016 6SM -RA BR BKN007
     FM302200 21012KT 6SM -SHRA BKN020
     FM010200 26012KT P6SM FEW020
     FM010600 26012KT P6SM BKN020=

USA.gov is the U.S. government's official web portal to all federal, state and local government web resources and services.